Time;durP1;ratioP1;P1;durP2;ratioP2;P2;SDS_P1;SDS_P2;PMS_P1;PMS_P2;Temp;Humidity;BMP_temperature;BMP_pressure;BME280_temperature;BME280_humidity;BME280_pressure;Samples;Min_cycle;Max_cycle;Signal;HPM_P1;HPM_P2
2022/11/28 07:26:04;;;;;;;27.87;9.67;;;;;;;2.54;100.00;101567.70;1764713;80;23622;-73
2022/11/28 07:28:32;;;;;;;32.80;17.47;;;;;;;2.59;100.00;101458.83;1736429;81;21073;-76
2022/11/28 07:31:09;;;;;;;36.63;20.63;;;;;;;2.64;100.00;101454.58;1707804;84;21002;-77
2022/11/28 07:33:38;;;;;;;33.93;17.10;;;;;;;2.66;100.00;101459.36;1708019;84;21025;-79
2022/11/28 07:36:13;;;;;;;30.43;14.17;;;;;;;2.68;100.00;101458.80;1707275;84;21125;-80
2022/11/28 07:38:42;;;;;;;26.53;13.23;;;;;;;2.69;100.00;101492.55;1707657;84;21041;-79
2022/11/28 07:41:12;;;;;;;24.07;9.63;;;;;;;2.67;100.00;101498.45;1724927;81;21557;-78
2022/11/28 10:14:24;;;;;;;21.40;10.17;;;;;;;2.60;100.00;101523.33;1726278;83;21025;-77
2022/11/28 10:17:03;;;;;;;22.60;10.73;;;;;;;2.60;100.00;101521.10;1718832;83;21021;-78
2022/11/28 10:19:35;;;;;;;20.70;9.83;;;;;;;2.61;100.00;101522.36;1718728;83;20966;-77
2022/11/28 10:22:06;;;;;;;21.33;9.23;;;;;;;2.59;100.00;101520.25;1684980;84;21122;-75
2022/11/28 10:24:43;;;;;;;24.07;10.47;;;;;;;2.57;100.00;101518.63;1664486;85;21006;-77
2022/11/28 10:27:12;;;;;;;24.07;10.03;;;;;;;2.57;100.00;101526.16;1662599;83;21054;-79
2022/11/28 10:30:04;;;;;;;22.53;10.37;;;;;;;2.58;100.00;101518.99;1674794;83;21029;-80
2022/11/28 11:46:11;;;;;;;27.50;10.17;;;;;;;2.65;100.00;101450.45;1666581;85;21090;-73
2022/11/28 11:48:45;;;;;;;27.90;12.53;;;;;;;2.59;100.00;101450.81;1666164;86;21519;-73
2022/11/28 11:51:28;;;;;;;24.47;11.17;;;;;;;2.58;100.00;101446.41;1630996;87;21049;-74
2022/11/28 11:54:14;;;;;;;22.62;9.53;;;;;;;2.55;100.00;101448.39;1619399;87;21527;-79
2022/11/28 11:56:44;;;;;;;22.60;9.40;;;;;;;2.55;100.00;101441.71;1621106;86;21099;-78
2022/11/28 11:59:19;;;;;;;26.33;11.97;;;;;;;2.56;100.00;101442.97;1617524;88;21040;-75
2022/11/28 12:01:48;;;;;;;25.13;10.63;;;;;;;2.56;100.00;101437.63;1633599;87;21010;-77
2022/11/28 12:04:26;;;;;;;30.30;12.10;;;;;;;2.54;100.00;101440.86;1630017;88;21067;-74
2022/11/28 12:06:53;;;;;;;27.63;12.40;;;;;;;2.55;100.00;101443.94;1675361;85;20986;-71
2022/11/28 12:09:45;;;;;;;34.50;13.80;;;;;;;2.54;100.00;101440.00;1657461;87;21541;-76
2022/11/28 12:12:19;;;;;;;26.87;11.30;;;;;;;2.52;100.00;101440.09;1665825;85;21026;-76
2022/11/28 12:14:47;;;;;;;28.97;11.47;;;;;;;2.50;100.00;101435.77;1650412;85;21033;-74
2022/11/28 12:17:37;;;;;;;31.70;10.83;;;;;;;2.46;100.00;101445.75;1650452;85;21518;-73
2022/11/28 12:20:49;;;;;;;25.43;10.77;;;;;;;2.44;100.00;101446.31;1633197;86;21141;-75
2022/11/28 12:23:41;;;;;;;24.33;9.90;;;;;;;2.40;100.00;101448.28;1659244;86;21012;-76
2022/11/28 12:26:37;;;;;;;22.27;9.27;;;;;;;2.37;100.00;101438.25;1658627;85;21010;-77
2022/11/28 12:29:48;;;;;;;20.53;9.50;;;;;;;2.35;100.00;101445.48;1658678;85;21077;-81
2022/11/28 12:32:39;;;;;;;30.83;12.27;;;;;;;2.34;100.00;101453.09;1456006;98;21105;-75
2022/11/28 12:35:15;;;;;;;30.27;12.13;;;;;;;2.34;100.00;101460.66;1444916;98;21179;-76
2022/11/28 12:38:03;;;;;;;31.90;13.83;;;;;;;2.34;100.00;101471.78;1473494;95;21090;-76
2022/11/28 12:40:43;;;;;;;27.47;12.37;;;;;;;2.35;100.00;101477.04;1471963;96;21116;-78
2022/11/28 12:43:45;;;;;;;24.53;10.10;;;;;;;2.37;100.00;101488.97;1472601;95;21107;-74
2022/11/28 12:46:41;;;;;;;29.57;12.10;;;;;;;2.36;100.00;101494.80;1470120;96;21174;-74
2022/11/28 12:49:24;;;;;;;27.67;12.73;;;;;;;2.36;100.00;101492.61;1461720;98;21140;-74
2022/11/28 12:52:28;;;;;;;25.93;12.30;;;;;;;2.34;100.00;101498.02;1436676;100;21068;-72
2022/11/28 12:55:09;;;;;;;32.87;14.63;;;;;;;2.26;100.00;101497.08;1443763;99;21587;-72
2022/11/28 12:57:59;;;;;;;27.37;13.20;;;;;;;2.21;100.00;101492.94;1411610;99;21120;-77
2022/11/28 13:00:26;;;;;;;25.63;12.33;;;;;;;2.15;100.00;101498.13;1390412;103;21167;-73
2022/11/28 13:03:14;;;;;;;32.37;13.13;;;;;;;2.11;100.00;101505.03;1374396;103;21216;-75
2022/11/28 13:06:17;;;;;;;34.70;15.87;;;;;;;2.08;100.00;101516.27;1372901;105;21117;-77
2022/11/28 13:09:25;;;;;;;30.57;12.83;;;;;;;2.03;100.00;101510.78;1387216;97;21135;-74
2022/11/28 13:12:13;;;;;;;25.03;10.93;;;;;;;1.98;100.00;101510.16;1415921;100;21118;-71
2022/11/28 13:14:53;;;;;;;31.70;15.27;;;;;;;1.93;100.00;101506.41;1416649;101;21093;-70
2022/11/28 13:17:41;;;;;;;37.27;16.20;;;;;;;1.92;100.00;101513.16;1415906;101;21178;-73
2022/11/28 13:20:30;;;;;;;41.37;16.77;;;;;;;1.87;100.00;101519.57;1409005;102;21185;-74
2022/11/28 13:23:02;;;;;;;36.27;15.77;;;;;;;1.86;100.00;101524.53;1416406;101;21139;-74
2022/11/28 13:25:56;;;;;;;39.27;16.82;;;;;;;1.83;100.00;101527.83;1397863;101;21135;-74
